createdAt,value
2023-01-11T00:00:49.602Z,99049.91
2023-01-11T00:05:47.382Z,99039.44
2023-01-11T00:13:11.555Z,99036.81
2023-01-11T00:15:40.400Z,99035.97
2023-01-11T00:18:08.088Z,99033.59
2023-01-11T00:23:05.368Z,99032.59
2023-01-11T00:28:16.203Z,99032.41
2023-01-11T00:30:46.629Z,99018.56
2023-01-11T00:38:38.365Z,99014.97
2023-01-11T00:41:21.315Z,99011.34
2023-01-11T00:44:06.415Z,99000.81
2023-01-11T00:46:51.824Z,98995.78
2023-01-11T00:49:19.585Z,98968.72
2023-01-11T00:51:47.224Z,98988.38
2023-01-11T00:54:14.384Z,98979.19
2023-01-11T00:56:43.398Z,98976.97
2023-01-11T00:59:12.933Z,98964.50
2023-01-11T01:01:40.681Z,98964.88
2023-01-11T01:04:08.369Z,98967.78
2023-01-11T01:06:36.005Z,98953.22
2023-01-11T01:09:04.695Z,98977.19
2023-01-11T01:25:00.446Z,98975.97
2023-01-11T01:29:57.540Z,98975.63
2023-01-11T01:37:27.731Z,98946.59
2023-01-11T01:39:57.371Z,98963.66
2023-01-11T01:45:06.177Z,98964.94
2023-01-11T01:47:42.043Z,98961.41
2023-01-11T01:50:14.741Z,98941.03
2023-01-11T01:52:45.990Z,98939.13
2023-01-11T01:55:15.852Z,98940.06
2023-01-11T01:57:45.213Z,98959.75
2023-01-11T02:00:13.856Z,98950.28
2023-01-11T02:02:42.270Z,98961.09
2023-01-11T02:05:10.878Z,98951.81
2023-01-11T02:07:40.231Z,98928.44
2023-01-11T02:10:11.604Z,98957.66
2023-01-11T02:12:41.810Z,98945.47
2023-01-11T02:15:11.135Z,98938.66
2023-01-11T02:17:38.734Z,98936.91
2023-01-11T02:20:32.904Z,98906.75
2023-01-11T02:23:21.567Z,98937.44
2023-01-11T02:26:31.430Z,98899.56
2023-01-11T02:29:05.953Z,98918.97
2023-01-11T02:31:36.433Z,98924.25
2023-01-11T02:34:11.882Z,98915.44
2023-01-11T02:36:48.372Z,98917.34
2023-01-11T02:39:19.836Z,98916.34
2023-01-11T02:42:12.163Z,98912.56
2023-01-11T02:45:01.461Z,98910.94
2023-01-11T02:47:35.533Z,98907.94
2023-01-11T02:50:10.673Z,98910.50
2023-01-11T02:52:42.448Z,98897.59
2023-01-11T02:55:11.580Z,98866.78
2023-01-11T02:57:40.232Z,98894.84
2023-01-11T03:00:11.226Z,98897.38
2023-01-11T03:02:39.477Z,98863.66
2023-01-11T03:05:12.968Z,98886.72
2023-01-11T03:07:51.967Z,98872.88
2023-01-11T03:10:26.886Z,98866.72
2023-01-11T03:13:00.239Z,98881.28
2023-01-11T03:15:55.592Z,98857.09
2023-01-11T03:18:34.276Z,98853.41
2023-01-11T03:21:12.766Z,98874.59
2023-01-11T03:23:43.883Z,98843.84
2023-01-11T03:26:17.291Z,98870.88
2023-01-11T03:28:52.361Z,98867.44
2023-01-11T03:31:24.422Z,98877.81
2023-01-11T03:34:00.142Z,98866.38
2023-01-11T03:36:30.119Z,98862.25
2023-01-11T03:39:01.679Z,98836.16
2023-01-11T03:41:32.351Z,98859.25
2023-01-11T03:44:01.224Z,98848.88
2023-01-11T03:46:32.282Z,98841.59
2023-01-11T03:49:02.938Z,98850.09
2023-01-11T03:51:32.796Z,98850.84
2023-01-11T03:54:05.002Z,98847.69
2023-01-11T03:56:37.541Z,98835.44
2023-01-11T03:59:05.310Z,98844.63
2023-01-11T04:01:34.345Z,98835.84
2023-01-11T04:04:01.969Z,98824.63
2023-01-11T04:06:30.282Z,98815.63
2023-01-11T04:08:57.893Z,98788.13
2023-01-11T04:11:25.647Z,98810.31
2023-01-11T04:13:53.347Z,98809.50
2023-01-11T04:16:21.131Z,98801.66
2023-01-11T04:18:50.128Z,98783.41
2023-01-11T04:21:17.868Z,98798.16
2023-01-11T04:23:45.512Z,98795.66
2023-01-11T04:26:13.167Z,98804.50
2023-01-11T04:28:40.895Z,98808.66
2023-01-11T04:31:08.636Z,98808.03
2023-01-11T04:33:36.360Z,98802.66
2023-01-11T04:36:07.237Z,98810.47
2023-01-11T04:38:35.132Z,98805.13
2023-01-11T04:41:17.503Z,98800.16
2023-01-11T04:43:45.212Z,98802.31
2023-01-11T04:46:12.943Z,98801.47
2023-01-11T04:48:42.028Z,98791.09
2023-01-11T04:51:11.157Z,98803.91
2023-01-11T04:53:38.887Z,98804.81
2023-01-11T04:56:07.769Z,98796.88
2023-01-11T04:58:38.215Z,98805.09
2023-01-11T05:01:09.959Z,98799.16
2023-01-11T05:03:37.715Z,98796.19
2023-01-11T05:06:06.514Z,98789.16
2023-01-11T05:08:35.658Z,98791.72
2023-01-11T05:11:05.249Z,98785.00
2023-01-11T05:13:45.275Z,98778.03
2023-01-11T05:16:14.480Z,98785.69
2023-01-11T05:18:42.790Z,98774.25
2023-01-11T05:21:12.105Z,98779.69
2023-01-11T05:23:42.132Z,98768.94
2023-01-11T05:26:11.768Z,98767.91
2023-01-11T05:28:39.472Z,98772.06
2023-01-11T05:31:07.165Z,98762.41
2023-01-11T05:33:34.832Z,98765.78
2023-01-11T05:36:04.408Z,98758.13
2023-01-11T05:38:32.129Z,98758.44
2023-01-11T05:41:03.053Z,98752.78
2023-01-11T05:43:31.889Z,98758.56
2023-01-11T05:45:59.348Z,98738.91
2023-01-11T05:48:27.116Z,98744.69
2023-01-11T05:50:56.763Z,98743.78
2023-01-11T05:55:55.763Z,98710.88
2023-01-11T05:58:26.579Z,98739.00
2023-01-11T06:00:55.877Z,98737.31
2023-01-11T06:03:25.215Z,98721.00
2023-01-11T06:05:53.989Z,98728.19
2023-01-11T06:08:21.880Z,98723.13
2023-01-11T06:10:52.484Z,98721.34
2023-01-11T06:13:29.372Z,98714.41
2023-01-11T06:16:01.813Z,98716.22
2023-01-11T06:18:30.670Z,98720.25
2023-01-11T06:20:58.830Z,98715.66
2023-01-11T06:23:26.993Z,98708.88
2023-01-11T06:25:55.075Z,98677.09
2023-01-11T06:28:23.333Z,98696.59
2023-01-11T06:30:54.820Z,98696.34
2023-01-11T06:33:32.820Z,98706.78
2023-01-11T06:36:02.802Z,98693.78
2023-01-11T06:38:34.675Z,98678.63
2023-01-11T06:41:07.205Z,98689.38
2023-01-11T06:43:35.052Z,98688.78
2023-01-11T06:46:02.733Z,98682.50
2023-01-11T06:48:32.037Z,98672.44
2023-01-11T06:51:00.378Z,98682.56
2023-01-11T06:53:29.538Z,98686.75
2023-01-11T06:55:58.562Z,98678.16
2023-01-11T06:58:27.471Z,98692.81
2023-01-11T07:00:57.161Z,98685.91
2023-01-11T07:03:25.792Z,98696.47
2023-01-11T07:05:56.747Z,98693.72
2023-01-11T07:08:25.069Z,98690.91
2023-01-11T07:10:53.099Z,98689.91
2023-01-11T07:13:21.080Z,98661.28
2023-01-11T07:15:50.675Z,98675.66
2023-01-11T07:18:19.153Z,98696.22
2023-01-11T07:20:47.002Z,98693.25
2023-01-11T07:23:16.008Z,98692.66
2023-01-11T07:25:43.784Z,98698.66
2023-01-11T07:28:11.543Z,98686.81
2023-01-11T07:30:56.690Z,98693.47
2023-01-11T07:33:25.953Z,98700.56
2023-01-11T07:35:53.735Z,98673.03
2023-01-11T07:38:23.004Z,98706.78
2023-01-11T07:40:50.819Z,98700.41
2023-01-11T07:43:19.681Z,98706.41
2023-01-11T07:45:49.438Z,98700.84
2023-01-11T07:48:20.877Z,98702.78
2023-01-11T07:50:49.377Z,98704.41
2023-01-11T07:53:18.840Z,98709.94
2023-01-11T07:55:47.931Z,98707.19
2023-01-11T07:58:16.257Z,98703.78
2023-01-11T08:00:45.913Z,98700.22
2023-01-11T08:03:13.698Z,98702.84
2023-01-11T08:05:41.619Z,98698.59
2023-01-11T08:08:09.473Z,98701.06
2023-01-11T08:10:37.096Z,98698.38
2023-01-11T08:13:23.799Z,98707.59
2023-01-11T08:15:51.441Z,98697.28
2023-01-11T08:18:19.977Z,98702.56
2023-01-11T08:20:48.639Z,98677.69
2023-01-11T08:23:16.263Z,98708.41
2023-01-11T08:25:43.985Z,98685.16
2023-01-11T08:28:13.179Z,98695.25
2023-01-11T08:30:41.711Z,98689.78
2023-01-11T08:33:12.695Z,98673.66
2023-01-11T08:35:43.037Z,98694.47
2023-01-11T08:38:12.127Z,98693.03
2023-01-11T08:40:41.015Z,98698.75
2023-01-11T08:43:08.966Z,98696.19
2023-01-11T08:45:37.954Z,98697.16
2023-01-11T08:48:05.823Z,98670.66
2023-01-11T08:50:33.805Z,98696.31
2023-01-11T08:53:01.477Z,98699.25
2023-01-11T08:55:30.710Z,98688.53
2023-01-11T08:57:58.457Z,98692.88
2023-01-11T09:00:27.225Z,98691.16
2023-01-11T09:02:57.422Z,98698.00
2023-01-11T09:05:25.575Z,98680.53
2023-01-11T09:07:55.615Z,98692.66
2023-01-11T09:10:27.293Z,98691.63
2023-01-11T09:12:55.513Z,98698.66
2023-01-11T09:15:23.441Z,98699.50
2023-01-11T09:17:53.588Z,98689.19
2023-01-11T09:20:23.427Z,98694.16
2023-01-11T09:22:53.288Z,98694.50
2023-01-11T09:25:21.524Z,98703.84
2023-01-11T09:27:50.441Z,98682.03
2023-01-11T09:30:19.812Z,98696.94
2023-01-11T09:32:47.885Z,98700.34
2023-01-11T09:35:16.867Z,98700.72
2023-01-11T09:37:50.240Z,98708.47
2023-01-11T09:40:21.091Z,98703.44
2023-01-11T09:42:52.527Z,98704.94
2023-01-11T09:45:23.046Z,98705.19
2023-01-11T09:47:52.721Z,98675.31
2023-01-11T09:50:23.443Z,98691.53
2023-01-11T09:52:54.863Z,98716.63
2023-01-11T09:55:33.958Z,98693.31
2023-01-11T09:58:28.369Z,98717.09
2023-01-11T10:01:02.649Z,98711.41
2023-01-11T10:03:58.373Z,98713.75
2023-01-11T10:06:28.945Z,98690.34
2023-01-11T10:18:22.728Z,98704.66
2023-01-11T10:18:31.572Z,98722.44
2023-01-11T10:21:06.827Z,98720.22
2023-01-11T10:23:42.176Z,98722.22
2023-01-11T10:26:24.146Z,98722.22
2023-01-11T10:29:07.348Z,98732.75
2023-01-11T10:31:49.371Z,98736.16
2023-01-11T10:34:40.062Z,98743.91
2023-01-11T10:37:30.498Z,98717.38
2023-01-11T10:40:22.767Z,98719.94
2023-01-11T10:42:56.208Z,98715.53
2023-01-11T10:45:38.435Z,98718.03
2023-01-11T10:48:09.024Z,98726.41
2023-01-11T10:50:41.483Z,98718.16
2023-01-11T10:53:17.058Z,98717.94
2023-01-11T10:55:49.530Z,98725.69
2023-01-11T10:58:30.251Z,98732.03
2023-01-11T11:01:08.570Z,98731.66
2023-01-11T11:03:53.068Z,98728.19
2023-01-11T11:06:27.390Z,98723.63
2023-01-11T11:09:00.364Z,98719.50
2023-01-11T11:11:33.415Z,98720.56
2023-01-11T11:14:04.887Z,98711.59
2023-01-11T11:16:42.498Z,98715.81
2023-01-11T11:19:13.789Z,98715.19
2023-01-11T11:21:43.460Z,98723.00
2023-01-11T11:24:19.002Z,98716.06
2023-01-11T11:26:50.296Z,98723.44
2023-01-11T11:29:23.361Z,98706.22
2023-01-11T11:31:52.064Z,98723.56
2023-01-11T11:34:22.493Z,98731.47
2023-01-11T11:36:51.753Z,98730.16
2023-01-11T11:39:20.936Z,98736.81
2023-01-11T11:41:50.490Z,98724.59
2023-01-11T11:44:20.868Z,98736.53
2023-01-11T11:47:01.183Z,98740.38
2023-01-11T11:49:29.808Z,98732.56
2023-01-11T11:51:58.367Z,98734.19
2023-01-11T11:54:29.443Z,98730.22
2023-01-11T11:56:59.281Z,98746.81
2023-01-11T11:59:29.714Z,98747.13
2023-01-11T12:02:01.856Z,98755.41
2023-01-11T12:04:39.734Z,98747.50
2023-01-11T12:07:09.965Z,98759.28
2023-01-11T12:09:37.858Z,98740.19
2023-01-11T12:12:06.729Z,98754.06
2023-01-11T12:14:35.531Z,98751.41
2023-01-11T12:17:23.419Z,98744.59
2023-01-11T12:19:51.157Z,98750.72
2023-01-11T12:22:20.582Z,98742.59
2023-01-11T12:24:49.802Z,98747.72
2023-01-11T12:27:28.726Z,98747.06
2023-01-11T12:30:07.759Z,98741.09
2023-01-11T12:32:55.469Z,98752.34
2023-01-11T12:35:37.363Z,98752.72
2023-01-11T12:38:17.686Z,98768.78
2023-01-11T12:40:52.990Z,98766.28
2023-01-11T12:43:34.864Z,98772.25
2023-01-11T12:46:12.952Z,98773.81
2023-01-11T12:48:53.210Z,98773.53
2023-01-11T12:51:38.109Z,98780.34
2023-01-11T12:54:25.927Z,98786.69
2023-01-11T12:57:08.087Z,98792.53
2023-01-11T12:59:51.274Z,98791.97
2023-01-11T13:02:32.500Z,98782.06
2023-01-11T13:05:09.386Z,98777.31
2023-01-11T13:07:47.117Z,98789.19
2023-01-11T13:10:22.857Z,98795.31
2023-01-11T13:12:53.805Z,98768.63
2023-01-11T13:15:34.501Z,98795.16
2023-01-11T13:18:08.842Z,98798.31
2023-01-11T13:21:00.074Z,98793.66
2023-01-11T13:23:34.855Z,98788.00
2023-01-11T13:26:14.732Z,98799.38
2023-01-11T13:28:45.738Z,98796.59
2023-01-11T13:31:15.163Z,98804.09
2023-01-11T13:33:47.394Z,98794.69
2023-01-11T13:36:23.764Z,98804.00
2023-01-11T13:38:56.383Z,98816.88
2023-01-11T13:41:28.927Z,98810.06
2023-01-11T13:43:57.622Z,98820.81
2023-01-11T13:46:38.141Z,98807.00
2023-01-11T13:49:13.737Z,98811.13
2023-01-11T13:51:48.452Z,98818.59
2023-01-11T13:54:19.903Z,98837.75
2023-01-11T13:56:51.004Z,98804.53
2023-01-11T13:59:24.308Z,98840.94
2023-01-11T14:01:55.886Z,98837.53
2023-01-11T14:04:27.601Z,98828.13
2023-01-11T14:07:06.115Z,98830.56
2023-01-11T14:09:53.438Z,98844.06
2023-01-11T14:12:29.357Z,98845.19
2023-01-11T14:15:07.262Z,98846.28
2023-01-11T14:17:55.506Z,98852.44
2023-01-11T14:20:30.015Z,98852.66
2023-01-11T14:23:07.432Z,98862.19
2023-01-11T14:25:38.520Z,98879.50
2023-01-11T14:28:25.360Z,98888.09
2023-01-11T14:31:05.749Z,98900.75
2023-01-11T14:33:59.220Z,98908.50
2023-01-11T14:37:17.671Z,98913.13
2023-01-11T14:40:08.264Z,98904.91
2023-01-11T14:43:09.817Z,98905.94
2023-01-11T14:45:47.799Z,98908.19
2023-01-11T14:48:27.681Z,98930.03
2023-01-11T14:51:06.889Z,98939.69
2023-01-11T14:53:38.179Z,98951.41
2023-01-11T14:56:35.404Z,98959.38
2023-01-11T14:59:04.421Z,98969.16
2023-01-11T15:02:11.299Z,98966.06
2023-01-11T15:04:40.231Z,98971.53
2023-01-11T15:07:23.611Z,98983.44
2023-01-11T15:09:53.508Z,98985.41
2023-01-11T15:12:23.408Z,98984.47
2023-01-11T15:14:54.915Z,98991.63
2023-01-11T15:17:43.504Z,98997.94
2023-01-11T15:20:13.465Z,98994.34
2023-01-11T15:22:41.669Z,98971.59
2023-01-11T15:25:21.793Z,98994.59
2023-01-11T15:27:51.158Z,99001.88
2023-01-11T15:30:39.242Z,99009.81
2023-01-11T15:33:29.163Z,99008.41
2023-01-11T15:36:06.671Z,99020.09
2023-01-11T15:38:36.791Z,99018.50
2023-01-11T15:41:19.372Z,99022.91
2023-01-11T15:43:56.705Z,99024.97
2023-01-11T15:46:54.221Z,99024.13
2023-01-11T15:49:47.730Z,99022.97
2023-01-11T15:53:06.582Z,99012.75
2023-01-11T15:56:03.117Z,99024.72
2023-01-11T15:58:56.870Z,99029.84
2023-01-11T16:01:26.145Z,99017.44
2023-01-11T16:04:00.355Z,99029.91
2023-01-11T16:06:34.691Z,99029.13
2023-01-11T16:09:11.802Z,98984.03
2023-01-11T16:11:43.475Z,99035.59
2023-01-11T16:14:30.202Z,99003.91
2023-01-11T16:16:58.116Z,99045.38
2023-01-11T16:19:28.148Z,99041.59
2023-01-11T16:21:59.203Z,99044.09
2023-01-11T16:24:29.470Z,99043.19
2023-01-11T16:26:59.158Z,99050.03
2023-01-11T16:29:31.139Z,99046.59
2023-01-11T16:32:00.718Z,99044.78
2023-01-11T16:34:29.842Z,99046.72
2023-01-11T16:36:58.100Z,99054.53
2023-01-11T16:39:28.393Z,99051.38
2023-01-11T16:41:58.708Z,99058.41
2023-01-11T16:44:36.050Z,99062.53
2023-01-11T16:47:15.697Z,99061.13
2023-01-11T16:49:48.788Z,99064.13
2023-01-11T16:52:39.234Z,99085.41
2023-01-11T16:55:22.349Z,99073.50
2023-01-11T16:57:54.447Z,99086.16
2023-01-11T17:00:28.837Z,99082.78
2023-01-11T17:03:06.744Z,99097.78
2023-01-11T17:05:34.549Z,99093.34
2023-01-11T17:08:09.603Z,99098.72
2023-01-11T17:10:37.449Z,99084.50
2023-01-11T17:13:33.281Z,99107.44
2023-01-11T17:16:05.069Z,99116.13
2023-01-11T17:18:33.014Z,99113.84
2023-01-11T17:21:00.781Z,99107.91
2023-01-11T17:23:28.848Z,99114.00
2023-01-11T17:25:57.586Z,99115.00
2023-01-11T17:28:26.167Z,99086.59
2023-01-11T17:30:54.232Z,99114.06
2023-01-11T17:33:29.177Z,99112.53
2023-01-11T17:35:57.052Z,99120.50
2023-01-11T17:38:26.041Z,99117.16
2023-01-11T17:40:57.239Z,99107.47
2023-01-11T17:43:43.491Z,99113.88
2023-01-11T17:46:15.682Z,99121.34
2023-01-11T17:48:52.900Z,99129.91
2023-01-11T17:51:25.927Z,99136.69
2023-01-11T17:53:53.600Z,99120.63
2023-01-11T17:56:37.648Z,99151.88
2023-01-11T17:59:17.472Z,99151.66
2023-01-11T18:01:47.087Z,99157.16
2023-01-11T18:04:19.859Z,99146.88
2023-01-11T18:06:48.443Z,99157.25
2023-01-11T18:09:23.302Z,99158.34
2023-01-11T18:11:52.264Z,99164.50
2023-01-11T18:14:22.449Z,99178.88
2023-01-11T18:16:58.042Z,99184.84
2023-01-11T18:19:32.840Z,99188.72
2023-01-11T18:22:00.833Z,99205.28
2023-01-11T18:24:31.874Z,99191.41
2023-01-11T18:27:16.974Z,99207.25
2023-01-11T18:29:51.793Z,99209.19
2023-01-11T18:32:20.379Z,99197.16
2023-01-11T18:34:51.790Z,99214.34
2023-01-11T18:37:20.153Z,99205.72
2023-01-11T18:39:47.868Z,99203.25
2023-01-11T18:42:18.273Z,99161.97
2023-01-11T18:44:49.396Z,99172.41
2023-01-11T18:47:19.472Z,99205.09
2023-01-11T18:49:47.348Z,99174.25
2023-01-11T18:52:16.869Z,99189.13
2023-01-11T18:54:44.875Z,99213.81
2023-01-11T18:57:12.584Z,99208.91
2023-01-11T18:59:40.467Z,99228.81
2023-01-11T19:02:21.697Z,99215.50
2023-01-11T19:04:49.723Z,99222.38
2023-01-11T19:07:19.057Z,99222.38
2023-01-11T19:09:46.672Z,99225.19
2023-01-11T19:12:15.407Z,99190.59
2023-01-11T19:14:43.251Z,99236.47
2023-01-11T19:17:12.346Z,99227.91
2023-01-11T19:19:40.240Z,99236.69
2023-01-11T19:22:08.799Z,99188.31
2023-01-11T19:24:38.018Z,99226.19
2023-01-11T19:27:05.886Z,99228.97
2023-01-11T19:29:33.672Z,99234.13
2023-01-11T19:32:01.318Z,99191.16
2023-01-11T19:34:28.923Z,99203.28
2023-01-11T19:36:56.561Z,99248.19
2023-01-11T19:39:24.304Z,99256.75
2023-01-11T19:41:57.906Z,99250.19
2023-01-11T19:44:28.244Z,99199.75
2023-01-11T19:47:10.402Z,99246.22
2023-01-11T19:52:06.127Z,99248.63
2023-01-11T19:59:28.044Z,99253.91
2023-01-11T20:04:25.132Z,99253.88
2023-01-11T20:09:20.204Z,99254.50
2023-01-11T20:14:15.166Z,99263.00
2023-01-11T20:19:12.155Z,99256.09
2023-01-11T20:26:37.179Z,99242.94
2023-01-11T20:31:35.411Z,99236.97
2023-01-11T20:34:04.435Z,99238.84
2023-01-11T20:36:32.071Z,99241.38
2023-01-11T20:38:59.786Z,99234.34
2023-01-11T20:41:46.192Z,99183.16
2023-01-11T20:44:16.074Z,99233.75
2023-01-11T20:46:47.620Z,99236.53
2023-01-11T20:49:15.780Z,99225.25
2023-01-11T20:51:44.096Z,99232.22
2023-01-11T20:54:12.038Z,99224.41
2023-01-11T20:56:40.843Z,99236.28
2023-01-11T20:59:09.770Z,99231.19
2023-01-11T21:01:38.124Z,99236.56
2023-01-11T21:04:08.400Z,99232.38
2023-01-11T21:06:38.476Z,99196.91
2023-01-11T21:09:07.370Z,99210.69
2023-01-11T21:11:35.896Z,99208.84
2023-01-11T21:14:05.043Z,99210.56
2023-01-11T21:16:32.947Z,99206.31
2023-01-11T21:19:02.101Z,99194.81
2023-01-11T21:21:34.223Z,99207.06
2023-01-11T21:24:03.741Z,99196.78
2023-01-11T21:26:31.965Z,99175.09
2023-01-11T21:29:00.914Z,99181.69
2023-01-11T21:31:30.085Z,99170.31
2023-01-11T21:33:58.622Z,99162.75
2023-01-11T21:36:28.387Z,99183.38
2023-01-11T21:38:58.230Z,99180.84
2023-01-11T21:41:41.979Z,99185.13
2023-01-11T21:44:10.525Z,99192.94
2023-01-11T21:46:38.456Z,99191.19
2023-01-11T21:49:06.662Z,99168.75
2023-01-11T21:51:34.588Z,99192.03
2023-01-11T21:54:06.265Z,99188.41
2023-01-11T21:56:33.993Z,99188.06
2023-01-11T21:59:01.732Z,99190.59
2023-01-11T22:01:30.811Z,99186.19
2023-01-11T22:03:58.715Z,99188.59
2023-01-11T22:06:26.548Z,99160.19
2023-01-11T22:08:54.338Z,99193.75
2023-01-11T22:11:23.842Z,99180.72
2023-01-11T22:13:53.965Z,99176.09
2023-01-11T22:16:21.853Z,99192.53
2023-01-11T22:18:50.000Z,99165.97
2023-01-11T22:21:19.083Z,99194.25
2023-01-11T22:23:47.579Z,99199.41
2023-01-11T22:26:16.622Z,99204.44
2023-01-11T22:29:03.758Z,99207.91
2023-01-11T22:31:32.191Z,99166.69
2023-01-11T22:34:00.671Z,99195.66
2023-01-11T22:36:29.334Z,99200.56
2023-01-11T22:38:57.299Z,99166.22
2023-01-11T22:41:25.839Z,99158.56
2023-01-11T22:43:55.087Z,99205.88
2023-01-11T22:46:24.218Z,99197.78
2023-01-11T22:48:53.733Z,99203.84
2023-01-11T22:51:22.469Z,99195.00
2023-01-11T22:53:51.109Z,99187.34
2023-01-11T22:56:20.456Z,99157.81
2023-01-11T22:58:48.499Z,99183.75
2023-01-11T23:01:19.164Z,99188.09
2023-01-11T23:03:46.992Z,99182.75
2023-01-11T23:06:17.569Z,99185.38
2023-01-11T23:08:45.832Z,99188.81
2023-01-11T23:11:38.948Z,99169.63
2023-01-11T23:14:07.864Z,99167.09
2023-01-11T23:16:37.665Z,99151.03
2023-01-11T23:19:06.978Z,99168.97
2023-01-11T23:21:34.864Z,99162.63
2023-01-11T23:24:03.093Z,99145.59
2023-01-11T23:26:31.126Z,99158.34
2023-01-11T23:28:59.107Z,99143.75
2023-01-11T23:31:29.330Z,99153.81
2023-01-11T23:34:00.499Z,99166.03
2023-01-11T23:36:30.830Z,99144.84
2023-01-11T23:38:59.099Z,99149.63
2023-01-11T23:46:44.294Z,99138.50
2023-01-11T23:49:14.705Z,99159.69
2023-01-11T23:51:43.474Z,99156.25
2023-01-11T23:54:11.657Z,99130.44
2023-01-11T23:56:39.666Z,99118.38
2023-01-11T23:59:08.849Z,99165.59
